sim
Sign-in with your pilot id or email,
or register
Callsign
Passwort

Schedule Details

Flight Number: DLH816 (1)
Departure: Frankfurt Airport (EDDF) at 10:30
Arrival: Gothenburg Landvetter Airport (ESGG) at 12:10
Route: Lufthansa Passenger Schedule. Enter filed route here before submitting Pirep.

Weather Information
Getting current METAR information for EDDF 291420Z 21005KT 9999 VCSH FEW020CB SCT027 11/09 Q1019 NOSIG
Getting current METAR information for ESGG 291420Z 23004KT 9999 FEW008 SCT043 09/07 Q1005

Schedule Frequency

Route Map